createdAt,value
2023-02-05T00:02:10.519Z,59.60
2023-02-05T00:04:38.379Z,53.10
2023-02-05T00:07:06.604Z,53.13
2023-02-05T00:09:34.329Z,55.07
2023-02-05T00:12:02.206Z,49.70
2023-02-05T00:14:29.906Z,41.13
2023-02-05T00:16:57.881Z,31.97
2023-02-05T00:19:25.513Z,39.57
2023-02-05T00:21:53.408Z,37.53
2023-02-05T00:24:21.047Z,36.47
2023-02-05T00:26:48.948Z,35.47
2023-02-05T00:29:16.614Z,32.67
2023-02-05T00:31:44.647Z,32.43
2023-02-05T00:34:18.297Z,34.87
2023-02-05T00:36:53.848Z,38.27
2023-02-05T00:39:23.373Z,54.60
2023-02-05T00:41:52.689Z,54.73
2023-02-05T00:44:20.308Z,51.10
2023-02-05T00:46:48.476Z,40.43
2023-02-05T00:49:16.076Z,36.93
2023-02-05T00:51:44.130Z,27.07
2023-02-05T00:54:11.895Z,26.83
2023-02-05T00:56:39.895Z,25.30
2023-02-05T00:59:08.171Z,24.23
2023-02-05T01:01:36.110Z,21.97
2023-02-05T01:04:03.795Z,21.93
2023-02-05T01:06:31.798Z,20.87
2023-02-05T01:08:59.424Z,20.47
2023-02-05T01:11:27.416Z,19.43
2023-02-05T01:13:55.193Z,21.67
2023-02-05T01:16:23.332Z,22.33
2023-02-05T01:18:50.903Z,21.43
2023-02-05T01:21:19.198Z,19.33
2023-02-05T01:23:46.753Z,17.17
2023-02-05T01:26:14.755Z,16.90
2023-02-05T01:28:43.643Z,15.77
2023-02-05T01:31:11.694Z,14.37
2023-02-05T01:33:39.490Z,16.00
2023-02-05T01:36:07.417Z,15.03
2023-02-05T01:38:35.069Z,15.43
2023-02-05T01:41:05.483Z,13.60
2023-02-05T01:43:33.008Z,15.67
2023-02-05T01:46:24.201Z,16.73
2023-02-05T01:48:53.483Z,15.43
2023-02-05T01:51:22.561Z,15.23
2023-02-05T01:53:50.533Z,15.00
2023-02-05T01:56:22.709Z,16.30
2023-02-05T01:58:56.622Z,15.23
2023-02-05T02:01:25.446Z,14.27
2023-02-05T02:03:55.129Z,15.20
2023-02-05T02:06:23.074Z,14.70
2023-02-05T02:08:51.334Z,14.50
2023-02-05T02:11:21.997Z,14.70
2023-02-05T02:13:51.520Z,15.07
2023-02-05T02:16:20.173Z,20.50
2023-02-05T02:18:48.589Z,17.97
2023-02-05T02:21:34.162Z,20.40
2023-02-05T02:24:14.304Z,20.97
2023-02-05T02:27:12.153Z,52.77
2023-02-05T02:29:47.914Z,30.90
2023-02-05T02:32:27.208Z,36.43
2023-02-05T02:35:03.777Z,42.97
2023-02-05T02:37:36.964Z,37.70
2023-02-05T02:40:17.067Z,36.53
2023-02-05T02:42:52.803Z,35.53
2023-02-05T02:45:22.145Z,45.33
2023-02-05T02:47:54.111Z,59.37
2023-02-05T02:50:35.090Z,57.13
2023-02-05T02:53:09.974Z,52.53
2023-02-05T02:55:40.008Z,51.27
2023-02-05T02:58:11.236Z,42.90
2023-02-05T03:00:40.908Z,40.00
2023-02-05T03:03:10.412Z,34.33
2023-02-05T03:05:38.901Z,24.13
2023-02-05T03:08:11.999Z,30.57
2023-02-05T03:10:47.496Z,34.10
2023-02-05T03:13:16.107Z,31.20
2023-02-05T03:15:49.890Z,30.63
2023-02-05T03:18:19.326Z,30.87
2023-02-05T03:20:50.539Z,27.60
2023-02-05T03:23:19.106Z,29.10
2023-02-05T03:25:46.688Z,26.73
2023-02-05T03:28:16.531Z,25.50
2023-02-05T03:31:02.559Z,25.57
2023-02-05T03:33:54.036Z,24.97
2023-02-05T03:36:52.126Z,22.67
2023-02-05T03:39:58.435Z,22.27
2023-02-05T03:42:38.072Z,23.40
2023-02-05T03:45:29.561Z,23.57
2023-02-05T03:47:59.172Z,26.13
2023-02-05T03:50:40.097Z,28.53
2023-02-05T03:53:31.550Z,22.60
2023-02-05T03:56:07.057Z,23.90
2023-02-05T03:58:40.451Z,25.17
2023-02-05T04:01:10.437Z,22.97
2023-02-05T04:03:39.591Z,24.73
2023-02-05T04:06:08.312Z,23.40
2023-02-05T04:08:36.616Z,21.87
2023-02-05T04:11:04.718Z,23.00
2023-02-05T04:13:33.874Z,21.10
2023-02-05T04:16:03.693Z,22.03
2023-02-05T04:18:31.405Z,21.27
2023-02-05T04:21:00.567Z,22.10
2023-02-05T04:23:30.009Z,37.77
2023-02-05T04:25:58.343Z,32.70
2023-02-05T04:28:35.630Z,30.03
2023-02-05T04:31:09.461Z,40.83
2023-02-05T04:33:38.869Z,45.83
2023-02-05T04:36:07.296Z,46.43
2023-02-05T04:38:35.614Z,48.20
2023-02-05T04:41:03.495Z,48.50
2023-02-05T04:43:30.989Z,49.27
2023-02-05T04:45:58.830Z,56.73
2023-02-05T04:48:26.424Z,51.07
2023-02-05T04:50:54.237Z,46.17
2023-02-05T04:53:21.734Z,41.30
2023-02-05T04:55:49.544Z,43.33
2023-02-05T04:58:17.056Z,42.47
2023-02-05T05:00:44.892Z,45.10
2023-02-05T05:03:12.408Z,46.53
2023-02-05T05:05:40.396Z,53.20
2023-02-05T05:08:07.930Z,58.53
2023-02-05T05:10:35.795Z,50.47
2023-02-05T05:13:03.354Z,55.17
2023-02-05T05:15:31.281Z,55.13
2023-02-05T05:17:58.833Z,60.63
2023-02-05T05:20:26.703Z,67.50
2023-02-05T05:22:54.240Z,62.90
2023-02-05T05:25:22.385Z,64.87
2023-02-05T05:27:50.329Z,51.90
2023-02-05T05:30:18.413Z,40.17
2023-02-05T05:32:45.990Z,35.50
2023-02-05T05:35:13.834Z,34.93
2023-02-05T05:37:41.364Z,32.67
2023-02-05T05:40:29.855Z,32.23
2023-02-05T05:43:16.128Z,28.57
2023-02-05T05:45:44.138Z,25.63
2023-02-05T05:48:11.753Z,26.23
2023-02-05T05:50:39.641Z,26.57
2023-02-05T05:53:07.311Z,27.27
2023-02-05T05:55:35.401Z,24.37
2023-02-05T05:58:03.115Z,25.87
2023-02-05T06:00:30.954Z,24.47
2023-02-05T06:02:58.517Z,25.10
2023-02-05T06:05:26.673Z,24.67
2023-02-05T06:07:54.220Z,24.17
2023-02-05T06:10:22.145Z,25.30
2023-02-05T06:12:50.617Z,25.90
2023-02-05T06:15:18.787Z,24.63
2023-02-05T06:17:46.531Z,26.27
2023-02-05T06:20:14.876Z,32.40
2023-02-05T06:22:42.498Z,26.37
2023-02-05T06:25:10.548Z,23.93
2023-02-05T06:27:38.230Z,22.90
2023-02-05T06:30:06.036Z,21.57
2023-02-05T06:32:33.606Z,21.30
2023-02-05T06:35:01.049Z,22.33
2023-02-05T06:37:46.302Z,22.33
2023-02-05T06:40:15.905Z,24.70
2023-02-05T06:42:43.569Z,25.10
2023-02-05T06:45:11.724Z,24.30
2023-02-05T06:47:39.566Z,25.07
2023-02-05T06:50:07.537Z,24.50
2023-02-05T06:52:34.763Z,24.80
2023-02-05T06:55:02.787Z,25.50
2023-02-05T06:57:31.955Z,24.33
2023-02-05T06:59:59.852Z,24.27
2023-02-05T07:02:27.616Z,25.03
2023-02-05T07:04:56.731Z,24.70
2023-02-05T07:07:24.290Z,24.20
2023-02-05T07:09:52.362Z,23.30
2023-02-05T07:12:20.242Z,24.53
2023-02-05T07:14:48.262Z,23.90
2023-02-05T07:17:15.862Z,23.47
2023-02-05T07:19:43.824Z,24.23
2023-02-05T07:22:13.951Z,24.43
2023-02-05T07:24:42.014Z,20.53
2023-02-05T07:27:09.580Z,22.43
2023-02-05T07:29:37.500Z,33.13
2023-02-05T07:32:05.312Z,25.67
2023-02-05T07:34:33.225Z,43.83
2023-02-05T07:37:00.912Z,29.57
2023-02-05T07:39:28.892Z,22.50
2023-02-05T07:41:56.611Z,19.30
2023-02-05T07:44:35.689Z,20.80
2023-02-05T07:47:03.263Z,20.43
2023-02-05T07:49:31.189Z,19.50
2023-02-05T07:51:59.054Z,22.17
2023-02-05T07:54:27.066Z,35.40
2023-02-05T07:56:55.472Z,33.30
2023-02-05T07:59:24.787Z,27.83
2023-02-05T08:01:52.760Z,25.97
2023-02-05T08:04:20.878Z,25.23
2023-02-05T08:06:48.649Z,20.63
2023-02-05T08:09:16.955Z,34.97
2023-02-05T08:11:44.677Z,93.63
2023-02-05T08:14:12.589Z,89.23
2023-02-05T08:16:40.133Z,97.13
2023-02-05T08:19:08.424Z,103.93
2023-02-05T08:21:36.083Z,101.67
2023-02-05T08:24:04.472Z,131.20
2023-02-05T08:26:32.022Z,102.30
2023-02-05T08:29:00.120Z,83.77
2023-02-05T08:31:29.129Z,64.73
2023-02-05T08:34:00.173Z,66.07
2023-02-05T08:36:28.504Z,57.23
2023-02-05T08:38:56.656Z,60.67
2023-02-05T08:41:24.259Z,59.77
2023-02-05T08:43:52.247Z,61.10
2023-02-05T08:46:22.135Z,66.60
2023-02-05T08:48:50.455Z,66.30
2023-02-05T08:51:19.631Z,74.83
2023-02-05T08:53:47.327Z,83.07
2023-02-05T08:56:16.016Z,77.83
2023-02-05T08:58:44.124Z,66.70
2023-02-05T09:01:14.198Z,62.93
2023-02-05T09:03:42.238Z,74.60
2023-02-05T09:06:12.686Z,78.50
2023-02-05T09:08:41.123Z,78.80
2023-02-05T09:11:09.271Z,74.17
2023-02-05T09:13:37.308Z,77.17
2023-02-05T09:16:05.172Z,81.97
2023-02-05T09:18:33.401Z,81.33
2023-02-05T09:21:01.217Z,64.83
2023-02-05T09:23:29.311Z,58.40
2023-02-05T09:25:59.708Z,72.13
2023-02-05T09:28:27.579Z,58.87
2023-02-05T09:30:55.475Z,62.00
2023-02-05T09:33:23.278Z,64.87
2023-02-05T09:35:50.948Z,67.70
2023-02-05T09:38:18.793Z,75.17
2023-02-05T09:40:51.945Z,83.27
2023-02-05T09:43:41.011Z,60.33
2023-02-05T09:46:44.941Z,44.17
2023-02-05T09:49:35.196Z,49.17
2023-02-05T09:52:24.252Z,52.63
2023-02-05T09:54:55.196Z,49.87
2023-02-05T09:57:33.768Z,49.97
2023-02-05T10:00:01.872Z,39.53
2023-02-05T10:02:37.406Z,33.83
2023-02-05T10:05:13.362Z,25.10
2023-02-05T10:07:44.171Z,35.13
2023-02-05T10:10:22.579Z,40.73
2023-02-05T10:13:01.883Z,29.00
2023-02-05T10:15:42.699Z,27.10
2023-02-05T10:18:54.085Z,26.20
2023-02-05T10:21:21.879Z,32.73
2023-02-05T10:24:07.123Z,29.80
2023-02-05T10:26:50.018Z,32.83
2023-02-05T10:29:17.717Z,30.87
2023-02-05T10:31:54.427Z,28.87
2023-02-05T10:34:25.069Z,32.70
2023-02-05T10:36:53.897Z,20.77
2023-02-05T10:39:23.442Z,23.60
2023-02-05T10:42:42.258Z,30.87
2023-02-05T10:45:12.462Z,24.03
2023-02-05T10:47:49.525Z,59.83
2023-02-05T10:50:43.421Z,23.87
2023-02-05T10:53:11.562Z,40.83
2023-02-05T10:55:40.281Z,24.83
2023-02-05T10:58:25.304Z,42.73
2023-02-05T11:00:53.234Z,38.33
2023-02-05T11:03:23.137Z,17.13
2023-02-05T11:05:51.244Z,17.73
2023-02-05T11:08:39.403Z,19.40
2023-02-05T11:11:08.078Z,18.77
2023-02-05T11:13:41.903Z,20.63
2023-02-05T11:16:11.080Z,15.68
2023-02-05T11:18:46.521Z,22.40
2023-02-05T11:21:14.247Z,23.48
2023-02-05T11:23:55.449Z,20.15
2023-02-05T11:26:24.349Z,21.63
2023-02-05T11:28:52.791Z,22.60
2023-02-05T11:31:20.813Z,26.52
2023-02-05T11:33:48.988Z,25.70
2023-02-05T11:36:23.545Z,20.95
2023-02-05T11:38:57.858Z,17.70
2023-02-05T11:41:49.572Z,17.43
2023-02-05T11:44:19.436Z,13.73
2023-02-05T11:46:47.361Z,14.45
2023-02-05T11:49:22.951Z,13.90
2023-02-05T11:51:53.527Z,16.45
2023-02-05T11:54:21.640Z,13.73
2023-02-05T11:57:07.713Z,13.45
2023-02-05T11:59:36.043Z,16.77
2023-02-05T12:02:31.190Z,17.73
2023-02-05T12:05:08.586Z,12.25
2023-02-05T12:07:48.734Z,14.55
2023-02-05T12:10:18.042Z,15.52
2023-02-05T12:13:24.646Z,12.50
2023-02-05T12:15:58.573Z,12.85
2023-02-05T12:18:31.500Z,17.13
2023-02-05T12:21:17.801Z,19.27
2023-02-05T12:24:28.446Z,13.48
2023-02-05T12:27:12.868Z,12.57
2023-02-05T12:29:41.681Z,17.25
2023-02-05T12:32:22.610Z,12.90
2023-02-05T12:34:50.210Z,14.05
2023-02-05T12:37:41.201Z,10.25
2023-02-05T12:40:27.346Z,7.38
2023-02-05T12:42:58.725Z,7.40
2023-02-05T12:45:30.180Z,8.13
2023-02-05T12:48:07.711Z,12.18
2023-02-05T12:50:53.931Z,12.48
2023-02-05T12:53:27.050Z,15.38
2023-02-05T12:56:13.390Z,13.88
2023-02-05T12:58:46.695Z,64.07
2023-02-05T13:01:20.847Z,19.33
2023-02-05T13:03:48.927Z,22.87
2023-02-05T13:06:40.484Z,14.47
2023-02-05T13:09:24.113Z,8.87
2023-02-05T13:12:01.772Z,13.40
2023-02-05T13:14:33.329Z,15.53
2023-02-05T13:17:07.564Z,15.67
2023-02-05T13:19:35.818Z,14.20
2023-02-05T13:22:29.359Z,14.90
2023-02-05T13:25:17.899Z,24.57
2023-02-05T13:28:08.288Z,14.57
2023-02-05T13:30:44.652Z,12.50
2023-02-05T13:33:12.340Z,11.17
2023-02-05T13:36:18.738Z,12.43
2023-02-05T13:38:47.208Z,12.80
2023-02-05T13:41:18.520Z,14.30
2023-02-05T13:43:54.832Z,16.97
2023-02-05T13:46:28.963Z,17.10
2023-02-05T13:49:15.328Z,21.90
2023-02-05T13:51:56.438Z,39.43
2023-02-05T13:54:27.526Z,21.73
2023-02-05T13:56:56.823Z,14.23
2023-02-05T13:59:43.726Z,13.37
2023-02-05T14:02:44.629Z,20.93
2023-02-05T14:05:13.816Z,34.40
2023-02-05T14:07:49.248Z,42.63
2023-02-05T14:10:37.683Z,46.03
2023-02-05T14:13:16.887Z,42.20
2023-02-05T14:15:45.279Z,52.37
2023-02-05T14:18:53.259Z,42.57
2023-02-05T14:21:46.402Z,35.37
2023-02-05T14:24:43.808Z,30.17
2023-02-05T14:27:34.196Z,44.73
2023-02-05T14:30:29.759Z,60.90
2023-02-05T14:33:01.711Z,67.80
2023-02-05T14:35:33.053Z,78.57
2023-02-05T14:38:02.793Z,79.60
2023-02-05T14:40:35.917Z,90.37
2023-02-05T14:43:18.224Z,89.37
2023-02-05T14:45:47.457Z,49.40
2023-02-05T14:48:20.172Z,36.20
2023-02-05T14:51:00.715Z,37.17
2023-02-05T14:53:30.074Z,33.77
2023-02-05T14:56:01.151Z,36.47
2023-02-05T14:58:35.481Z,40.63
2023-02-05T15:01:41.987Z,47.73
2023-02-05T15:04:19.916Z,63.53
2023-02-05T15:06:48.764Z,76.13
2023-02-05T15:09:34.396Z,66.50
2023-02-05T15:12:22.761Z,67.43
2023-02-05T15:14:57.339Z,84.07
2023-02-05T15:17:31.021Z,94.33
2023-02-05T15:20:20.622Z,116.03
2023-02-05T15:22:53.014Z,124.73
2023-02-05T15:25:31.276Z,100.83
2023-02-05T15:28:36.797Z,49.10
2023-02-05T15:31:10.294Z,37.53
2023-02-05T15:33:50.836Z,41.13
2023-02-05T15:36:32.258Z,44.00
2023-02-05T15:39:06.511Z,50.20
2023-02-05T15:41:36.187Z,44.03
2023-02-05T15:44:04.685Z,33.20
2023-02-05T15:46:34.302Z,26.37
2023-02-05T15:49:06.086Z,27.40
2023-02-05T15:51:34.996Z,26.57
2023-02-05T15:54:04.721Z,28.07
2023-02-05T15:56:37.685Z,28.23
2023-02-05T15:59:07.705Z,28.53
2023-02-05T16:01:39.467Z,29.17
2023-02-05T16:04:34.006Z,30.50
2023-02-05T16:07:02.944Z,28.87
2023-02-05T16:09:31.937Z,32.57
2023-02-05T16:12:11.583Z,83.70
2023-02-05T16:14:40.069Z,92.50
2023-02-05T16:17:20.180Z,90.63
2023-02-05T16:19:56.207Z,89.90
2023-02-05T16:22:33.337Z,83.27
2023-02-05T16:25:03.981Z,77.20
2023-02-05T16:27:36.728Z,76.93
2023-02-05T16:30:16.502Z,79.37
2023-02-05T16:32:44.354Z,83.13
2023-02-05T16:35:39.089Z,81.80
2023-02-05T16:38:09.279Z,94.53
2023-02-05T16:40:40.484Z,90.37
2023-02-05T16:43:17.363Z,108.67
2023-02-05T16:46:08.726Z,102.63
2023-02-05T16:48:41.791Z,88.73
2023-02-05T16:51:28.045Z,69.97
2023-02-05T16:53:56.013Z,60.97
2023-02-05T16:56:25.840Z,71.10
2023-02-05T16:58:58.442Z,73.67
2023-02-05T17:01:33.014Z,75.20
2023-02-05T17:04:03.089Z,60.53
2023-02-05T17:06:39.825Z,64.50
2023-02-05T17:09:08.109Z,64.63
2023-02-05T17:11:38.329Z,60.83
2023-02-05T17:14:12.313Z,58.03
2023-02-05T17:16:41.256Z,55.50
2023-02-05T17:19:26.854Z,58.40
2023-02-05T17:22:18.816Z,57.57
2023-02-05T17:24:52.354Z,74.27
2023-02-05T17:27:29.352Z,61.63
2023-02-05T17:29:57.909Z,51.83
2023-02-05T17:32:27.462Z,59.43
2023-02-05T17:34:55.511Z,71.20
2023-02-05T17:37:23.550Z,54.77
2023-02-05T17:39:51.622Z,49.33
2023-02-05T17:42:21.345Z,50.37
2023-02-05T17:44:50.669Z,43.47
2023-02-05T17:47:19.649Z,42.63
2023-02-05T17:49:47.817Z,42.33
2023-02-05T17:52:16.257Z,40.17
2023-02-05T17:54:46.325Z,27.40
2023-02-05T17:57:19.134Z,26.07
2023-02-05T17:59:47.158Z,26.73
2023-02-05T18:02:15.818Z,34.30
2023-02-05T18:04:45.044Z,30.47
2023-02-05T18:07:33.475Z,26.43
2023-02-05T18:10:01.666Z,30.43
2023-02-05T18:12:29.707Z,28.77
2023-02-05T18:14:57.399Z,26.03
2023-02-05T18:17:25.832Z,26.80
2023-02-05T18:19:53.766Z,24.27
2023-02-05T18:22:21.805Z,24.97
2023-02-05T18:24:49.493Z,23.07
2023-02-05T18:27:17.595Z,28.93
2023-02-05T18:29:47.443Z,27.27
2023-02-05T18:32:18.345Z,24.03
2023-02-05T18:34:46.054Z,24.17
2023-02-05T18:37:16.907Z,23.90
2023-02-05T18:39:48.026Z,23.97
2023-02-05T18:42:18.761Z,27.60
2023-02-05T18:44:48.770Z,24.90
2023-02-05T18:47:16.965Z,24.33
2023-02-05T18:49:47.079Z,25.23
2023-02-05T18:52:15.098Z,23.13
2023-02-05T18:54:44.054Z,24.50
2023-02-05T18:57:14.829Z,25.13
2023-02-05T18:59:44.596Z,25.37
2023-02-05T19:02:15.881Z,26.40
2023-02-05T19:04:45.581Z,24.87
2023-02-05T19:07:13.639Z,24.63
2023-02-05T19:09:41.457Z,24.63
2023-02-05T19:12:09.448Z,22.43
2023-02-05T19:14:40.526Z,23.83
2023-02-05T19:17:08.776Z,23.03
2023-02-05T19:19:36.796Z,25.97
2023-02-05T19:22:06.527Z,24.27
2023-02-05T19:24:36.192Z,22.07
2023-02-05T19:27:04.144Z,23.93
2023-02-05T19:29:38.072Z,26.10
2023-02-05T19:32:07.243Z,23.13
2023-02-05T19:34:43.461Z,23.37
2023-02-05T19:37:13.969Z,23.53
2023-02-05T19:39:41.712Z,20.70
2023-02-05T19:42:10.520Z,23.33
2023-02-05T19:44:38.387Z,22.83
2023-02-05T19:47:06.915Z,23.57
2023-02-05T19:49:34.793Z,22.80
2023-02-05T19:52:02.996Z,27.93
2023-02-05T19:54:30.731Z,28.77
2023-02-05T19:56:59.391Z,28.43
2023-02-05T19:59:27.849Z,27.53
2023-02-05T20:01:56.479Z,28.27
2023-02-05T20:04:26.049Z,27.03
2023-02-05T20:06:59.657Z,31.50
2023-02-05T20:09:28.486Z,31.63
2023-02-05T20:11:56.683Z,29.83
2023-02-05T20:14:25.998Z,28.00
2023-02-05T20:16:54.282Z,30.07
2023-02-05T20:19:22.426Z,29.77
2023-02-05T20:21:50.974Z,31.90
2023-02-05T20:24:18.959Z,35.70
2023-02-05T20:26:50.130Z,34.00
2023-02-05T20:29:39.871Z,32.10
2023-02-05T20:32:09.023Z,31.90
2023-02-05T20:34:39.523Z,34.90
2023-02-05T20:37:10.306Z,33.13
2023-02-05T20:39:42.147Z,32.63
2023-02-05T20:42:14.329Z,34.20
2023-02-05T20:44:45.355Z,38.63
2023-02-05T20:47:15.496Z,36.87
2023-02-05T20:49:46.791Z,37.93
2023-02-05T20:52:15.438Z,37.17
2023-02-05T20:54:44.511Z,37.20
2023-02-05T20:57:13.867Z,37.07
2023-02-05T20:59:42.029Z,36.63
2023-02-05T21:02:11.699Z,36.13
2023-02-05T21:04:40.448Z,35.27
2023-02-05T21:07:09.565Z,37.03
2023-02-05T21:09:41.129Z,36.00
2023-02-05T21:12:09.712Z,33.93
2023-02-05T21:14:39.149Z,35.63
2023-02-05T21:17:10.599Z,33.33
2023-02-05T21:19:39.531Z,35.20
2023-02-05T21:22:07.783Z,34.33
2023-02-05T21:24:35.853Z,35.53
2023-02-05T21:27:04.339Z,34.00
2023-02-05T21:29:32.371Z,34.90
2023-02-05T21:32:00.474Z,35.13
2023-02-05T21:34:29.827Z,35.37
2023-02-05T21:36:58.034Z,35.67
2023-02-05T21:39:26.285Z,33.43
2023-02-05T21:41:54.560Z,35.33
2023-02-05T21:44:22.505Z,36.03
2023-02-05T21:46:50.840Z,37.90
2023-02-05T21:49:18.698Z,38.13
2023-02-05T21:51:48.578Z,36.80
2023-02-05T21:54:16.646Z,33.97
2023-02-05T21:56:44.620Z,37.63
2023-02-05T21:59:13.065Z,35.90
2023-02-05T22:01:42.466Z,33.87
2023-02-05T22:04:14.616Z,36.10
2023-02-05T22:06:42.982Z,34.07
2023-02-05T22:09:11.949Z,34.97
2023-02-05T22:11:40.729Z,34.40
2023-02-05T22:14:10.293Z,35.93
2023-02-05T22:16:39.035Z,34.73
2023-02-05T22:19:07.807Z,34.47
2023-02-05T22:21:40.868Z,37.40
2023-02-05T22:24:09.765Z,40.73
2023-02-05T22:26:38.930Z,37.83
2023-02-05T22:29:07.452Z,37.57
2023-02-05T22:31:35.888Z,37.57
2023-02-05T22:34:04.219Z,36.50
2023-02-05T22:36:33.114Z,37.57
2023-02-05T22:39:01.193Z,36.83
2023-02-05T22:41:31.578Z,36.97
2023-02-05T22:43:59.903Z,38.20
2023-02-05T22:46:29.613Z,35.83
2023-02-05T22:48:58.715Z,36.80
2023-02-05T22:51:29.670Z,36.40
2023-02-05T22:53:57.375Z,34.00
2023-02-05T22:56:25.458Z,35.80
2023-02-05T22:58:53.889Z,34.13
2023-02-05T23:01:25.255Z,35.60
2023-02-05T23:03:53.363Z,34.60
2023-02-05T23:06:24.581Z,35.43
2023-02-05T23:08:53.498Z,37.27
2023-02-05T23:11:21.875Z,34.03
2023-02-05T23:13:49.588Z,36.07
2023-02-05T23:16:22.041Z,36.50
2023-02-05T23:18:50.076Z,36.30
2023-02-05T23:21:19.602Z,34.97
2023-02-05T23:23:47.281Z,35.43
2023-02-05T23:26:17.308Z,37.20
2023-02-05T23:28:45.450Z,34.47
2023-02-05T23:31:13.661Z,33.43
2023-02-05T23:33:41.453Z,34.63
2023-02-05T23:36:10.121Z,34.30
2023-02-05T23:38:37.947Z,33.73
2023-02-05T23:41:06.494Z,33.73
2023-02-05T23:43:34.876Z,35.47
2023-02-05T23:46:03.196Z,34.93
2023-02-05T23:48:31.033Z,35.70
2023-02-05T23:50:59.037Z,32.53
2023-02-05T23:53:27.263Z,38.37
2023-02-05T23:55:55.684Z,38.63
2023-02-05T23:58:26.142Z,38.83
